sensor_id;sensor_type;location;lat;lon;timestamp;P1;P2;P0
55276;PMS5003;41136;51.478;-2.610;2023-05-16T00:00:07;3;3;
55276;PMS5003;41136;51.478;-2.610;2023-05-16T00:02:32;2;2;
55276;PMS5003;41136;51.478;-2.610;2023-05-16T00:04:57;1;1;
55276;PMS5003;41136;51.478;-2.610;2023-05-16T00:07:23;2;1;
55276;PMS5003;41136;51.478;-2.610;2023-05-16T00:09:48;2;2;
55276;PMS5003;41136;51.478;-2.610;2023-05-16T00:12:13;3;1;
55276;PMS5003;41136;51.478;-2.610;2023-05-16T00:14:39;1;1;
55276;PMS5003;41136;51.478;-2.610;2023-05-16T00:17:04;1;1;
55276;PMS5003;41136;51.478;-2.610;2023-05-16T00:19:29;2;2;
55276;PMS5003;41136;51.478;-2.610;2023-05-16T00:21:55;2;1;
55276;PMS5003;41136;51.478;-2.610;2023-05-16T00:24:20;2;2;
55276;PMS5003;41136;51.478;-2.610;2023-05-16T00:26:46;1;1;
55276;PMS5003;41136;51.478;-2.610;2023-05-16T00:29:11;2;2;
55276;PMS5003;41136;51.478;-2.610;2023-05-16T00:31:36;1;1;
55276;PMS5003;41136;51.478;-2.610;2023-05-16T00:34:02;1;1;
55276;PMS5003;41136;51.478;-2.610;2023-05-16T00:36:27;2;2;
55276;PMS5003;41136;51.478;-2.610;2023-05-16T00:38:53;2;2;
55276;PMS5003;41136;51.478;-2.610;2023-05-16T00:41:18;1;1;
55276;PMS5003;41136;51.478;-2.610;2023-05-16T00:43:43;1;1;
55276;PMS5003;41136;51.478;-2.610;2023-05-16T00:46:09;3;1;
55276;PMS5003;41136;51.478;-2.610;2023-05-16T00:48:34;6;2;
55276;PMS5003;41136;51.478;-2.610;2023-05-16T00:51:00;2;2;
55276;PMS5003;41136;51.478;-2.610;2023-05-16T00:53:25;2;2;
55276;PMS5003;41136;51.478;-2.610;2023-05-16T00:55:50;6;3;
55276;PMS5003;41136;51.478;-2.610;2023-05-16T00:58:16;2;2;
55276;PMS5003;41136;51.478;-2.610;2023-05-16T01:00:41;3;1;
55276;PMS5003;41136;51.478;-2.610;2023-05-16T01:03:07;3;2;
55276;PMS5003;41136;51.478;-2.610;2023-05-16T01:05:32;1;1;
55276;PMS5003;41136;51.478;-2.610;2023-05-16T01:07:57;2;2;
55276;PMS5003;41136;51.478;-2.610;2023-05-16T01:10:23;1;1;
55276;PMS5003;41136;51.478;-2.610;2023-05-16T01:12:53;1;1;
55276;PMS5003;41136;51.478;-2.610;2023-05-16T01:15:14;0;0;
55276;PMS5003;41136;51.478;-2.610;2023-05-16T01:17:43;1;1;
55276;PMS5003;41136;51.478;-2.610;2023-05-16T01:20:06;2;1;
55276;PMS5003;41136;51.478;-2.610;2023-05-16T01:22:34;4;3;
55276;PMS5003;41136;51.478;-2.610;2023-05-16T01:24:58;1;1;
55276;PMS5003;41136;51.478;-2.610;2023-05-16T01:27:20;2;2;
55276;PMS5003;41136;51.478;-2.610;2023-05-16T01:29:46;1;1;
55276;PMS5003;41136;51.478;-2.610;2023-05-16T01:32:11;1;1;
55276;PMS5003;41136;51.478;-2.610;2023-05-16T01:34:37;2;2;
55276;PMS5003;41136;51.478;-2.610;2023-05-16T01:37:04;2;2;
55276;PMS5003;41136;51.478;-2.610;2023-05-16T01:39:30;2;2;
55276;PMS5003;41136;51.478;-2.610;2023-05-16T01:41:54;1;1;
55276;PMS5003;41136;51.478;-2.610;2023-05-16T01:44:20;2;2;
55276;PMS5003;41136;51.478;-2.610;2023-05-16T01:52:24;1;1;
55276;PMS5003;41136;51.478;-2.610;2023-05-16T01:54:48;3;2;
55276;PMS5003;41136;51.478;-2.610;2023-05-16T01:57:13;2;2;
55276;PMS5003;41136;51.478;-2.610;2023-05-16T01:59:40;1;1;
55276;PMS5003;41136;51.478;-2.610;2023-05-16T02:02:04;1;1;
55276;PMS5003;41136;51.478;-2.610;2023-05-16T02:04:29;1;1;
55276;PMS5003;41136;51.478;-2.610;2023-05-16T02:06:55;1;1;
55276;PMS5003;41136;51.478;-2.610;2023-05-16T02:09:20;2;1;
55276;PMS5003;41136;51.478;-2.610;2023-05-16T02:11:46;1;1;
55276;PMS5003;41136;51.478;-2.610;2023-05-16T02:14:11;0;0;
55276;PMS5003;41136;51.478;-2.610;2023-05-16T02:16:36;3;1;
55276;PMS5003;41136;51.478;-2.610;2023-05-16T02:19:02;1;1;
55276;PMS5003;41136;51.478;-2.610;2023-05-16T02:21:27;3;1;
55276;PMS5003;41136;51.478;-2.610;2023-05-16T02:23:52;1;1;
55276;PMS5003;41136;51.478;-2.610;2023-05-16T02:26:18;1;1;
55276;PMS5003;41136;51.478;-2.610;2023-05-16T02:28:43;1;1;
55276;PMS5003;41136;51.478;-2.610;2023-05-16T02:31:09;1;1;
55276;PMS5003;41136;51.478;-2.610;2023-05-16T02:33:34;1;1;
55276;PMS5003;41136;51.478;-2.610;2023-05-16T02:35:59;1;1;
55276;PMS5003;41136;51.478;-2.610;2023-05-16T02:38:25;2;0;
55276;PMS5003;41136;51.478;-2.610;2023-05-16T02:40:50;3;1;
55276;PMS5003;41136;51.478;-2.610;2023-05-16T02:43:16;0;0;
55276;PMS5003;41136;51.478;-2.610;2023-05-16T02:45:41;2;2;
55276;PMS5003;41136;51.478;-2.610;2023-05-16T02:48:06;2;2;
55276;PMS5003;41136;51.478;-2.610;2023-05-16T02:50:32;2;0;
55276;PMS5003;41136;51.478;-2.610;2023-05-16T02:52:57;1;1;
55276;PMS5003;41136;51.478;-2.610;2023-05-16T02:55:23;1;1;
55276;PMS5003;41136;51.478;-2.610;2023-05-16T02:57:48;1;1;
55276;PMS5003;41136;51.478;-2.610;2023-05-16T03:00:14;0;0;
55276;PMS5003;41136;51.478;-2.610;2023-05-16T03:02:39;0;0;
55276;PMS5003;41136;51.478;-2.610;2023-05-16T03:05:04;2;2;
55276;PMS5003;41136;51.478;-2.610;2023-05-16T03:07:30;1;1;
55276;PMS5003;41136;51.478;-2.610;2023-05-16T03:09:55;1;1;
55276;PMS5003;41136;51.478;-2.610;2023-05-16T03:12:20;1;1;
55276;PMS5003;41136;51.478;-2.610;2023-05-16T03:14:46;0;0;
55276;PMS5003;41136;51.478;-2.610;2023-05-16T03:17:11;2;2;
55276;PMS5003;41136;51.478;-2.610;2023-05-16T03:19:37;1;1;
55276;PMS5003;41136;51.478;-2.610;2023-05-16T03:22:02;0;0;
55276;PMS5003;41136;51.478;-2.610;2023-05-16T03:24:27;1;1;
55276;PMS5003;41136;51.478;-2.610;2023-05-16T03:26:53;1;1;
55276;PMS5003;41136;51.478;-2.610;2023-05-16T03:29:18;3;2;
55276;PMS5003;41136;51.478;-2.610;2023-05-16T03:31:43;1;1;
55276;PMS5003;41136;51.478;-2.610;2023-05-16T03:34:09;2;1;
55276;PMS5003;41136;51.478;-2.610;2023-05-16T03:36:34;1;1;
55276;PMS5003;41136;51.478;-2.610;2023-05-16T03:39:00;1;1;
55276;PMS5003;41136;51.478;-2.610;2023-05-16T03:41:25;0;0;
55276;PMS5003;41136;51.478;-2.610;2023-05-16T03:43:50;3;2;
55276;PMS5003;41136;51.478;-2.610;2023-05-16T03:46:16;1;1;
55276;PMS5003;41136;51.478;-2.610;2023-05-16T03:48:41;3;1;
55276;PMS5003;41136;51.478;-2.610;2023-05-16T03:51:07;3;2;
55276;PMS5003;41136;51.478;-2.610;2023-05-16T03:53:32;1;1;
55276;PMS5003;41136;51.478;-2.610;2023-05-16T04:01:25;1;1;
55276;PMS5003;41136;51.478;-2.610;2023-05-16T04:03:50;2;1;
55276;PMS5003;41136;51.478;-2.610;2023-05-16T04:06:16;2;1;
55276;PMS5003;41136;51.478;-2.610;2023-05-16T04:08:41;1;1;
55276;PMS5003;41136;51.478;-2.610;2023-05-16T04:11:06;4;1;
55276;PMS5003;41136;51.478;-2.610;2023-05-16T04:13:32;4;3;
55276;PMS5003;41136;51.478;-2.610;2023-05-16T04:15:57;2;2;
55276;PMS5003;41136;51.478;-2.610;2023-05-16T04:18:23;3;3;
55276;PMS5003;41136;51.478;-2.610;2023-05-16T04:20:48;3;2;
55276;PMS5003;41136;51.478;-2.610;2023-05-16T04:23:13;3;3;
55276;PMS5003;41136;51.478;-2.610;2023-05-16T04:25:39;1;1;
55276;PMS5003;41136;51.478;-2.610;2023-05-16T04:28:04;3;3;
55276;PMS5003;41136;51.478;-2.610;2023-05-16T04:30:30;3;3;
55276;PMS5003;41136;51.478;-2.610;2023-05-16T04:32:55;1;1;
55276;PMS5003;41136;51.478;-2.610;2023-05-16T04:35:21;2;2;
55276;PMS5003;41136;51.478;-2.610;2023-05-16T04:37:46;2;2;
55276;PMS5003;41136;51.478;-2.610;2023-05-16T04:40:11;1;1;
55276;PMS5003;41136;51.478;-2.610;2023-05-16T04:42:37;2;1;
55276;PMS5003;41136;51.478;-2.610;2023-05-16T04:45:02;1;1;
55276;PMS5003;41136;51.478;-2.610;2023-05-16T04:47:28;2;2;
55276;PMS5003;41136;51.478;-2.610;2023-05-16T04:49:53;2;2;
55276;PMS5003;41136;51.478;-2.610;2023-05-16T04:52:18;3;2;
55276;PMS5003;41136;51.478;-2.610;2023-05-16T04:54:44;2;2;
55276;PMS5003;41136;51.478;-2.610;2023-05-16T04:57:09;1;1;
55276;PMS5003;41136;51.478;-2.610;2023-05-16T04:59:35;1;1;
55276;PMS5003;41136;51.478;-2.610;2023-05-16T05:02:00;1;1;
55276;PMS5003;41136;51.478;-2.610;2023-05-16T05:04:25;1;1;
55276;PMS5003;41136;51.478;-2.610;2023-05-16T05:06:51;2;2;
55276;PMS5003;41136;51.478;-2.610;2023-05-16T05:09:16;2;2;
55276;PMS5003;41136;51.478;-2.610;2023-05-16T05:11:41;2;2;
55276;PMS5003;41136;51.478;-2.610;2023-05-16T05:14:07;4;4;
55276;PMS5003;41136;51.478;-2.610;2023-05-16T05:16:32;3;2;
55276;PMS5003;41136;51.478;-2.610;2023-05-16T05:18:58;2;1;
55276;PMS5003;41136;51.478;-2.610;2023-05-16T05:21:23;2;2;
55276;PMS5003;41136;51.478;-2.610;2023-05-16T05:23:49;1;1;
55276;PMS5003;41136;51.478;-2.610;2023-05-16T05:26:14;1;1;
55276;PMS5003;41136;51.478;-2.610;2023-05-16T05:28:39;2;2;
55276;PMS5003;41136;51.478;-2.610;2023-05-16T05:31:05;2;2;
55276;PMS5003;41136;51.478;-2.610;2023-05-16T05:33:30;3;3;
55276;PMS5003;41136;51.478;-2.610;2023-05-16T05:35:56;2;2;
55276;PMS5003;41136;51.478;-2.610;2023-05-16T05:38:21;3;2;
55276;PMS5003;41136;51.478;-2.610;2023-05-16T05:40:46;1;1;
55276;PMS5003;41136;51.478;-2.610;2023-05-16T05:43:12;3;3;
55276;PMS5003;41136;51.478;-2.610;2023-05-16T05:45:37;6;4;
55276;PMS5003;41136;51.478;-2.610;2023-05-16T05:48:03;3;3;
55276;PMS5003;41136;51.478;-2.610;2023-05-16T05:50:28;3;3;
55276;PMS5003;41136;51.478;-2.610;2023-05-16T05:52:54;4;4;
55276;PMS5003;41136;51.478;-2.610;2023-05-16T05:55:19;3;3;
55276;PMS5003;41136;51.478;-2.610;2023-05-16T05:57:44;5;4;
55276;PMS5003;41136;51.478;-2.610;2023-05-16T06:00:10;4;3;
55276;PMS5003;41136;51.478;-2.610;2023-05-16T06:02:35;5;5;
55276;PMS5003;41136;51.478;-2.610;2023-05-16T06:05:01;3;2;
55276;PMS5003;41136;51.478;-2.610;2023-05-16T06:07:26;3;3;
55276;PMS5003;41136;51.478;-2.610;2023-05-16T06:09:52;5;4;
55276;PMS5003;41136;51.478;-2.610;2023-05-16T06:12:17;3;3;
55276;PMS5003;41136;51.478;-2.610;2023-05-16T06:14:42;2;2;
55276;PMS5003;41136;51.478;-2.610;2023-05-16T06:17:08;3;3;
55276;PMS5003;41136;51.478;-2.610;2023-05-16T06:19:33;2;2;
55276;PMS5003;41136;51.478;-2.610;2023-05-16T06:21:59;2;2;
55276;PMS5003;41136;51.478;-2.610;2023-05-16T06:24:24;3;3;
55276;PMS5003;41136;51.478;-2.610;2023-05-16T06:26:49;2;2;
55276;PMS5003;41136;51.478;-2.610;2023-05-16T06:29:15;2;2;
55276;PMS5003;41136;51.478;-2.610;2023-05-16T06:31:40;3;3;
55276;PMS5003;41136;51.478;-2.610;2023-05-16T06:34:06;3;3;
55276;PMS5003;41136;51.478;-2.610;2023-05-16T06:36:31;2;2;
55276;PMS5003;41136;51.478;-2.610;2023-05-16T06:38:56;1;1;
55276;PMS5003;41136;51.478;-2.610;2023-05-16T06:41:22;3;3;
55276;PMS5003;41136;51.478;-2.610;2023-05-16T06:43:47;5;2;
55276;PMS5003;41136;51.478;-2.610;2023-05-16T06:46:12;3;1;
55276;PMS5003;41136;51.478;-2.610;2023-05-16T06:48:38;4;4;
55276;PMS5003;41136;51.478;-2.610;2023-05-16T06:51:03;2;2;
55276;PMS5003;41136;51.478;-2.610;2023-05-16T06:53:29;2;2;
55276;PMS5003;41136;51.478;-2.610;2023-05-16T06:55:54;1;1;
55276;PMS5003;41136;51.478;-2.610;2023-05-16T06:58:19;1;1;
55276;PMS5003;41136;51.478;-2.610;2023-05-16T07:00:45;2;1;
55276;PMS5003;41136;51.478;-2.610;2023-05-16T07:03:10;2;2;
55276;PMS5003;41136;51.478;-2.610;2023-05-16T07:05:36;0;0;
55276;PMS5003;41136;51.478;-2.610;2023-05-16T07:08:01;1;1;
55276;PMS5003;41136;51.478;-2.610;2023-05-16T07:10:26;1;1;
55276;PMS5003;41136;51.478;-2.610;2023-05-16T07:12:52;2;2;
55276;PMS5003;41136;51.478;-2.610;2023-05-16T07:15:17;2;2;
55276;PMS5003;41136;51.478;-2.610;2023-05-16T07:17:42;2;0;
55276;PMS5003;41136;51.478;-2.610;2023-05-16T07:20:08;1;1;
55276;PMS5003;41136;51.478;-2.610;2023-05-16T07:22:33;2;2;
55276;PMS5003;41136;51.478;-2.610;2023-05-16T07:24:59;2;1;
55276;PMS5003;41136;51.478;-2.610;2023-05-16T07:27:24;1;1;
55276;PMS5003;41136;51.478;-2.610;2023-05-16T07:29:49;1;1;
55276;PMS5003;41136;51.478;-2.610;2023-05-16T07:32:15;0;0;
55276;PMS5003;41136;51.478;-2.610;2023-05-16T07:34:40;2;2;
55276;PMS5003;41136;51.478;-2.610;2023-05-16T07:37:05;1;1;
55276;PMS5003;41136;51.478;-2.610;2023-05-16T07:39:31;3;2;
55276;PMS5003;41136;51.478;-2.610;2023-05-16T07:41:56;1;1;
55276;PMS5003;41136;51.478;-2.610;2023-05-16T07:44:22;1;1;
55276;PMS5003;41136;51.478;-2.610;2023-05-16T07:46:47;0;0;
55276;PMS5003;41136;51.478;-2.610;2023-05-16T07:49:12;4;1;
55276;PMS5003;41136;51.478;-2.610;2023-05-16T07:51:38;2;2;
55276;PMS5003;41136;51.478;-2.610;2023-05-16T07:54:03;2;2;
55276;PMS5003;41136;51.478;-2.610;2023-05-16T07:56:28;2;2;
55276;PMS5003;41136;51.478;-2.610;2023-05-16T07:58:54;2;2;
55276;PMS5003;41136;51.478;-2.610;2023-05-16T08:01:19;1;1;
55276;PMS5003;41136;51.478;-2.610;2023-05-16T08:03:45;1;1;
55276;PMS5003;41136;51.478;-2.610;2023-05-16T08:06:10;2;2;
55276;PMS5003;41136;51.478;-2.610;2023-05-16T08:08:35;2;2;
55276;PMS5003;41136;51.478;-2.610;2023-05-16T08:11:00;2;1;
55276;PMS5003;41136;51.478;-2.610;2023-05-16T08:13:26;3;3;
55276;PMS5003;41136;51.478;-2.610;2023-05-16T08:15:51;3;2;
55276;PMS5003;41136;51.478;-2.610;2023-05-16T08:18:16;1;0;
55276;PMS5003;41136;51.478;-2.610;2023-05-16T08:20:42;3;3;
55276;PMS5003;41136;51.478;-2.610;2023-05-16T08:23:07;0;0;
55276;PMS5003;41136;51.478;-2.610;2023-05-16T08:25:33;2;2;
55276;PMS5003;41136;51.478;-2.610;2023-05-16T08:27:58;2;1;
55276;PMS5003;41136;51.478;-2.610;2023-05-16T08:30:24;2;2;
55276;PMS5003;41136;51.478;-2.610;2023-05-16T08:32:49;3;3;
55276;PMS5003;41136;51.478;-2.610;2023-05-16T08:35:14;6;2;
55276;PMS5003;41136;51.478;-2.610;2023-05-16T08:37:39;2;2;
55276;PMS5003;41136;51.478;-2.610;2023-05-16T08:40:07;1;1;
55276;PMS5003;41136;51.478;-2.610;2023-05-16T08:42:30;3;2;
55276;PMS5003;41136;51.478;-2.610;2023-05-16T08:44:55;2;0;
55276;PMS5003;41136;51.478;-2.610;2023-05-16T08:47:21;2;2;
55276;PMS5003;41136;51.478;-2.610;2023-05-16T08:49:47;5;3;
55276;PMS5003;41136;51.478;-2.610;2023-05-16T08:52:11;2;2;
55276;PMS5003;41136;51.478;-2.610;2023-05-16T08:54:37;1;1;
55276;PMS5003;41136;51.478;-2.610;2023-05-16T08:57:02;1;1;
55276;PMS5003;41136;51.478;-2.610;2023-05-16T08:59:27;2;2;
55276;PMS5003;41136;51.478;-2.610;2023-05-16T09:01:53;3;2;
55276;PMS5003;41136;51.478;-2.610;2023-05-16T09:04:18;2;1;
55276;PMS5003;41136;51.478;-2.610;2023-05-16T09:06:43;2;1;
55276;PMS5003;41136;51.478;-2.610;2023-05-16T09:09:09;1;1;
55276;PMS5003;41136;51.478;-2.610;2023-05-16T09:11:34;3;3;
55276;PMS5003;41136;51.478;-2.610;2023-05-16T09:13:59;3;1;
55276;PMS5003;41136;51.478;-2.610;2023-05-16T09:16:25;1;1;
55276;PMS5003;41136;51.478;-2.610;2023-05-16T09:18:52;4;3;
55276;PMS5003;41136;51.478;-2.610;2023-05-16T09:21:15;3;3;
55276;PMS5003;41136;51.478;-2.610;2023-05-16T09:23:41;3;3;
55276;PMS5003;41136;51.478;-2.610;2023-05-16T09:26:06;3;1;
55276;PMS5003;41136;51.478;-2.610;2023-05-16T09:28:32;2;2;
55276;PMS5003;41136;51.478;-2.610;2023-05-16T09:30:57;3;1;
55276;PMS5003;41136;51.478;-2.610;2023-05-16T09:33:22;4;3;
55276;PMS5003;41136;51.478;-2.610;2023-05-16T09:38:13;3;3;
55276;PMS5003;41136;51.478;-2.610;2023-05-16T09:40:39;3;2;
55276;PMS5003;41136;51.478;-2.610;2023-05-16T09:43:04;3;2;
55276;PMS5003;41136;51.478;-2.610;2023-05-16T09:45:29;3;3;
55276;PMS5003;41136;51.478;-2.610;2023-05-16T09:47:57;3;2;
55276;PMS5003;41136;51.478;-2.610;2023-05-16T09:50:20;2;2;
55276;PMS5003;41136;51.478;-2.610;2023-05-16T09:52:45;1;1;
55276;PMS5003;41136;51.478;-2.610;2023-05-16T09:55:10;2;2;
55276;PMS5003;41136;51.478;-2.610;2023-05-16T09:57:36;2;2;
55276;PMS5003;41136;51.478;-2.610;2023-05-16T10:00:01;4;2;
55276;PMS5003;41136;51.478;-2.610;2023-05-16T10:02:27;3;3;
55276;PMS5003;41136;51.478;-2.610;2023-05-16T10:04:52;2;2;
55276;PMS5003;41136;51.478;-2.610;2023-05-16T10:07:17;4;2;
55276;PMS5003;41136;51.478;-2.610;2023-05-16T10:09:43;1;1;
55276;PMS5003;41136;51.478;-2.610;2023-05-16T10:12:08;2;2;
55276;PMS5003;41136;51.478;-2.610;2023-05-16T10:14:35;3;2;
55276;PMS5003;41136;51.478;-2.610;2023-05-16T10:16:59;2;2;
55276;PMS5003;41136;51.478;-2.610;2023-05-16T10:19:24;2;2;
55276;PMS5003;41136;51.478;-2.610;2023-05-16T10:21:50;0;0;
55276;PMS5003;41136;51.478;-2.610;2023-05-16T10:24:15;2;2;
55276;PMS5003;41136;51.478;-2.610;2023-05-16T10:26:40;1;1;
55276;PMS5003;41136;51.478;-2.610;2023-05-16T10:29:05;3;3;
55276;PMS5003;41136;51.478;-2.610;2023-05-16T10:31:31;1;1;
55276;PMS5003;41136;51.478;-2.610;2023-05-16T10:33:56;4;2;
55276;PMS5003;41136;51.478;-2.610;2023-05-16T10:36:21;6;4;
55276;PMS5003;41136;51.478;-2.610;2023-05-16T10:38:47;3;3;
55276;PMS5003;41136;51.478;-2.610;2023-05-16T10:41:12;2;2;
55276;PMS5003;41136;51.478;-2.610;2023-05-16T10:43:37;3;3;
55276;PMS5003;41136;51.478;-2.610;2023-05-16T10:46:04;6;4;
55276;PMS5003;41136;51.478;-2.610;2023-05-16T10:48:28;3;3;
55276;PMS5003;41136;51.478;-2.610;2023-05-16T10:50:53;3;3;
55276;PMS5003;41136;51.478;-2.610;2023-05-16T10:53:19;3;3;
55276;PMS5003;41136;51.478;-2.610;2023-05-16T10:55:48;3;3;
55276;PMS5003;41136;51.478;-2.610;2023-05-16T10:58:09;3;3;
55276;PMS5003;41136;51.478;-2.610;2023-05-16T11:00:35;3;3;
55276;PMS5003;41136;51.478;-2.610;2023-05-16T11:03:03;5;3;
55276;PMS5003;41136;51.478;-2.610;2023-05-16T11:05:25;4;4;
55276;PMS5003;41136;51.478;-2.610;2023-05-16T11:10:16;3;3;
55276;PMS5003;41136;51.478;-2.610;2023-05-16T11:12:42;3;3;
55276;PMS5003;41136;51.478;-2.610;2023-05-16T11:17:37;3;3;
55276;PMS5003;41136;51.478;-2.610;2023-05-16T11:19:58;3;3;
55276;PMS5003;41136;51.478;-2.610;2023-05-16T11:22:23;3;3;
55276;PMS5003;41136;51.478;-2.610;2023-05-16T11:24:50;4;4;
55276;PMS5003;41136;51.478;-2.610;2023-05-16T11:27:14;7;4;
55276;PMS5003;41136;51.478;-2.610;2023-05-16T11:29:39;5;5;
55276;PMS5003;41136;51.478;-2.610;2023-05-16T11:32:04;4;4;
55276;PMS5003;41136;51.478;-2.610;2023-05-16T11:34:30;5;4;
55276;PMS5003;41136;51.478;-2.610;2023-05-16T11:36:55;6;5;
55276;PMS5003;41136;51.478;-2.610;2023-05-16T11:39:20;6;5;
55276;PMS5003;41136;51.478;-2.610;2023-05-16T11:41:45;4;4;
55276;PMS5003;41136;51.478;-2.610;2023-05-16T11:44:11;4;3;
55276;PMS5003;41136;51.478;-2.610;2023-05-16T11:46:37;7;6;
55276;PMS5003;41136;51.478;-2.610;2023-05-16T11:49:02;3;3;
55276;PMS5003;41136;51.478;-2.610;2023-05-16T11:51:27;6;4;
55276;PMS5003;41136;51.478;-2.610;2023-05-16T11:53:52;4;4;
55276;PMS5003;41136;51.478;-2.610;2023-05-16T11:56:18;5;4;
55276;PMS5003;41136;51.478;-2.610;2023-05-16T11:58:43;6;4;
55276;PMS5003;41136;51.478;-2.610;2023-05-16T12:01:08;5;4;
55276;PMS5003;41136;51.478;-2.610;2023-05-16T12:03:33;4;4;
55276;PMS5003;41136;51.478;-2.610;2023-05-16T12:05:59;7;5;
55276;PMS5003;41136;51.478;-2.610;2023-05-16T12:08:24;4;4;
55276;PMS5003;41136;51.478;-2.610;2023-05-16T12:10:50;4;4;
55276;PMS5003;41136;51.478;-2.610;2023-05-16T12:13:15;7;5;
55276;PMS5003;41136;51.478;-2.610;2023-05-16T12:15:40;5;5;
55276;PMS5003;41136;51.478;-2.610;2023-05-16T12:18:06;3;3;
55276;PMS5003;41136;51.478;-2.610;2023-05-16T12:20:31;6;5;
55276;PMS5003;41136;51.478;-2.610;2023-05-16T12:22:57;7;4;
55276;PMS5003;41136;51.478;-2.610;2023-05-16T12:25:24;4;4;
55276;PMS5003;41136;51.478;-2.610;2023-05-16T12:27:47;3;3;
55276;PMS5003;41136;51.478;-2.610;2023-05-16T12:30:15;5;5;
55276;PMS5003;41136;51.478;-2.610;2023-05-16T12:32:38;5;5;
55276;PMS5003;41136;51.478;-2.610;2023-05-16T12:35:04;7;6;
55276;PMS5003;41136;51.478;-2.610;2023-05-16T12:37:29;3;3;
55276;PMS5003;41136;51.478;-2.610;2023-05-16T12:39:58;5;4;
55276;PMS5003;41136;51.478;-2.610;2023-05-16T12:42:19;5;5;
55276;PMS5003;41136;51.478;-2.610;2023-05-16T12:44:45;4;4;
55276;PMS5003;41136;51.478;-2.610;2023-05-16T12:47:10;3;3;
55276;PMS5003;41136;51.478;-2.610;2023-05-16T12:49:35;8;6;
55276;PMS5003;41136;51.478;-2.610;2023-05-16T12:52:01;8;6;
55276;PMS5003;41136;51.478;-2.610;2023-05-16T12:54:26;6;4;
55276;PMS5003;41136;51.478;-2.610;2023-05-16T12:56:51;4;4;
55276;PMS5003;41136;51.478;-2.610;2023-05-16T12:59:17;7;6;
55276;PMS5003;41136;51.478;-2.610;2023-05-16T13:01:42;3;3;
55276;PMS5003;41136;51.478;-2.610;2023-05-16T13:04:07;5;5;
55276;PMS5003;41136;51.478;-2.610;2023-05-16T13:06:33;7;4;
55276;PMS5003;41136;51.478;-2.610;2023-05-16T13:08:58;5;5;
55276;PMS5003;41136;51.478;-2.610;2023-05-16T13:11:23;7;5;
55276;PMS5003;41136;51.478;-2.610;2023-05-16T13:13:48;8;6;
55276;PMS5003;41136;51.478;-2.610;2023-05-16T13:16:14;5;5;
55276;PMS5003;41136;51.478;-2.610;2023-05-16T13:18:39;5;5;
55276;PMS5003;41136;51.478;-2.610;2023-05-16T13:21:05;7;5;
55276;PMS5003;41136;51.478;-2.610;2023-05-16T13:23:30;5;5;
55276;PMS5003;41136;51.478;-2.610;2023-05-16T13:25:55;4;4;
55276;PMS5003;41136;51.478;-2.610;2023-05-16T13:28:21;6;4;
55276;PMS5003;41136;51.478;-2.610;2023-05-16T13:30:46;4;4;
55276;PMS5003;41136;51.478;-2.610;2023-05-16T13:33:11;4;4;
55276;PMS5003;41136;51.478;-2.610;2023-05-16T13:35:37;4;4;
55276;PMS5003;41136;51.478;-2.610;2023-05-16T13:38:02;4;4;
55276;PMS5003;41136;51.478;-2.610;2023-05-16T13:40:28;4;4;
55276;PMS5003;41136;51.478;-2.610;2023-05-16T13:42:53;4;4;
55276;PMS5003;41136;51.478;-2.610;2023-05-16T13:45:18;3;3;
55276;PMS5003;41136;51.478;-2.610;2023-05-16T13:47:43;8;7;
55276;PMS5003;41136;51.478;-2.610;2023-05-16T13:50:09;4;3;
55276;PMS5003;41136;51.478;-2.610;2023-05-16T13:52:34;2;2;
55276;PMS5003;41136;51.478;-2.610;2023-05-16T13:54:59;5;5;
55276;PMS5003;41136;51.478;-2.610;2023-05-16T13:57:25;6;6;
55276;PMS5003;41136;51.478;-2.610;2023-05-16T13:59:50;6;6;
55276;PMS5003;41136;51.478;-2.610;2023-05-16T14:02:15;4;4;
55276;PMS5003;41136;51.478;-2.610;2023-05-16T14:04:41;8;6;
55276;PMS5003;41136;51.478;-2.610;2023-05-16T14:07:06;8;6;
55276;PMS5003;41136;51.478;-2.610;2023-05-16T14:09:31;5;4;
55276;PMS5003;41136;51.478;-2.610;2023-05-16T14:11:57;6;4;
55276;PMS5003;41136;51.478;-2.610;2023-05-16T14:14:22;12;8;
55276;PMS5003;41136;51.478;-2.610;2023-05-16T14:16:47;5;5;
55276;PMS5003;41136;51.478;-2.610;2023-05-16T14:19:12;10;7;
55276;PMS5003;41136;51.478;-2.610;2023-05-16T14:21:38;6;4;
55276;PMS5003;41136;51.478;-2.610;2023-05-16T14:24:03;5;5;
55276;PMS5003;41136;51.478;-2.610;2023-05-16T14:26:28;6;6;
55276;PMS5003;41136;51.478;-2.610;2023-05-16T14:28:54;6;6;
55276;PMS5003;41136;51.478;-2.610;2023-05-16T14:31:19;7;4;
55276;PMS5003;41136;51.478;-2.610;2023-05-16T14:33:44;6;6;
55276;PMS5003;41136;51.478;-2.610;2023-05-16T14:36:10;7;6;
55276;PMS5003;41136;51.478;-2.610;2023-05-16T14:38:35;5;4;
55276;PMS5003;41136;51.478;-2.610;2023-05-16T14:41:01;6;6;
55276;PMS5003;41136;51.478;-2.610;2023-05-16T14:43:26;7;6;
55276;PMS5003;41136;51.478;-2.610;2023-05-16T14:45:51;5;5;
55276;PMS5003;41136;51.478;-2.610;2023-05-16T14:48:17;7;6;
55276;PMS5003;41136;51.478;-2.610;2023-05-16T14:50:42;6;6;
55276;PMS5003;41136;51.478;-2.610;2023-05-16T14:53:07;4;4;
55276;PMS5003;41136;51.478;-2.610;2023-05-16T14:55:33;6;5;
55276;PMS5003;41136;51.478;-2.610;2023-05-16T14:57:58;8;6;
55276;PMS5003;41136;51.478;-2.610;2023-05-16T15:00:23;8;6;
55276;PMS5003;41136;51.478;-2.610;2023-05-16T15:02:48;7;6;
55276;PMS5003;41136;51.478;-2.610;2023-05-16T15:05:14;6;4;
55276;PMS5003;41136;51.478;-2.610;2023-05-16T15:07:39;7;7;
55276;PMS5003;41136;51.478;-2.610;2023-05-16T15:10:05;5;4;
55276;PMS5003;41136;51.478;-2.610;2023-05-16T15:12:30;4;4;
55276;PMS5003;41136;51.478;-2.610;2023-05-16T15:14:55;8;7;
55276;PMS5003;41136;51.478;-2.610;2023-05-16T15:17:20;5;5;
55276;PMS5003;41136;51.478;-2.610;2023-05-16T15:19:46;6;6;
55276;PMS5003;41136;51.478;-2.610;2023-05-16T15:22:11;8;5;
55276;PMS5003;41136;51.478;-2.610;2023-05-16T15:24:36;7;6;
55276;PMS5003;41136;51.478;-2.610;2023-05-16T15:27:01;5;5;
55276;PMS5003;41136;51.478;-2.610;2023-05-16T15:29:27;2;2;
55276;PMS5003;41136;51.478;-2.610;2023-05-16T15:31:52;6;6;
55276;PMS5003;41136;51.478;-2.610;2023-05-16T15:34:17;8;6;
55276;PMS5003;41136;51.478;-2.610;2023-05-16T15:36:43;6;3;
55276;PMS5003;41136;51.478;-2.610;2023-05-16T15:39:08;4;4;
55276;PMS5003;41136;51.478;-2.610;2023-05-16T15:41:33;5;3;
55276;PMS5003;41136;51.478;-2.610;2023-05-16T15:43:58;6;4;
55276;PMS5003;41136;51.478;-2.610;2023-05-16T15:46:24;5;5;
55276;PMS5003;41136;51.478;-2.610;2023-05-16T15:48:50;6;5;
55276;PMS5003;41136;51.478;-2.610;2023-05-16T15:51:14;3;3;
55276;PMS5003;41136;51.478;-2.610;2023-05-16T15:53:40;5;5;
55276;PMS5003;41136;51.478;-2.610;2023-05-16T15:56:05;7;6;
55276;PMS5003;41136;51.478;-2.610;2023-05-16T15:58:30;6;4;
55276;PMS5003;41136;51.478;-2.610;2023-05-16T16:00:55;6;6;
55276;PMS5003;41136;51.478;-2.610;2023-05-16T16:05:42;4;3;
55276;PMS5003;41136;51.478;-2.610;2023-05-16T16:08:07;5;5;
55276;PMS5003;41136;51.478;-2.610;2023-05-16T16:10:32;6;4;
55276;PMS5003;41136;51.478;-2.610;2023-05-16T16:12:58;8;6;
55276;PMS5003;41136;51.478;-2.610;2023-05-16T16:15:23;8;6;
55276;PMS5003;41136;51.478;-2.610;2023-05-16T16:17:48;5;4;
55276;PMS5003;41136;51.478;-2.610;2023-05-16T16:20:13;4;4;
55276;PMS5003;41136;51.478;-2.610;2023-05-16T16:22:39;5;5;
55276;PMS5003;41136;51.478;-2.610;2023-05-16T16:25:04;5;5;
55276;PMS5003;41136;51.478;-2.610;2023-05-16T16:40:40;4;4;
55276;PMS5003;41136;51.478;-2.610;2023-05-16T16:43:05;6;6;
55276;PMS5003;41136;51.478;-2.610;2023-05-16T16:50:06;6;6;
55276;PMS5003;41136;51.478;-2.610;2023-05-16T16:52:30;8;7;
55276;PMS5003;41136;51.478;-2.610;2023-05-16T16:57:55;5;5;
55276;PMS5003;41136;51.478;-2.610;2023-05-16T17:04:01;5;3;